Weather reports worldwide

Advertisment
Cairnwell, United Kingdom (3072): temperature & dewpoint: 15.10.2017 06:00:00 - 21.10.2017 06:00:00 (BST)Cairnwell, United Kingdom (3072): wind speed & gusts: 15.10.2017 06:00:00 - 21.10.2017 06:00:00 (BST)Cairnwell, United Kingdom (3072): wind direction: 15.10.2017 06:00:00 - 21.10.2017 06:00:00 (BST)
Date & Time tt [°C] td [°C] ff [km/h] ff [kn] fx [km/h] fx [kn] dd
21.10.2017 06:00:00 - - - - - - -
21.10.2017 05:00:00 - - - - - - -
21.10.2017 04:00:00 4,5 4,5 59 32 102 55 SE
21.10.2017 03:00:00 4,1 2,9 55 30 117 63 ESE
21.10.2017 02:00:00 5,3 5,3 74 40 111 60 SE
21.10.2017 01:00:00 5,8 5,7 74 40 113 61 SE
21.10.2017 00:00:00 6,1 6,1 72 39 94 51 SE
20.10.2017 23:00:00 5,9 5,9 61 33 80 43 SSE
20.10.2017 22:00:00 6,8 6,8 61 33 85 46 SSE
20.10.2017 21:00:00 6,9 6,9 54 29 70 38 SSE
20.10.2017 20:00:00 6,9 6,9 41 22 54 29 SSE
20.10.2017 19:00:00 6,9 6,9 39 21 46 25 SSE
20.10.2017 18:00:00 7,5 7,5 35 19 - - SSE
20.10.2017 17:00:00 7,6 7,6 28 15 - - SSE
20.10.2017 16:00:00 7,8 7,8 31 17 - - SE
20.10.2017 15:00:00 8,3 7,4 13 7 - - SSE
20.10.2017 14:00:00 7,7 5,4 8 4 - - NE
20.10.2017 13:00:00 7,1 7,0 11 6 - - N
20.10.2017 12:00:00 6,9 6,9 21 11 - - NW
20.10.2017 11:00:00 7,3 7,3 9 5 - - NW
20.10.2017 10:00:00 6,7 6,7 9 5 - - N
20.10.2017 09:00:00 6,7 6,7 18 10 - - NNE
20.10.2017 08:00:00 6,5 6,4 18 10 - - NW
20.10.2017 07:00:00 6,8 6,8 9 5 - - W
20.10.2017 06:00:00 6,7 6,7 13 7 - - N
20.10.2017 05:00:00 6,7 6,6 24 13 - - NW
20.10.2017 04:00:00 7,1 7,0 5 3 - - N
20.10.2017 03:00:00 6,8 6,8 8 4 - - NNE
20.10.2017 02:00:00 7,5 7,4 9 5 - - E
20.10.2017 01:00:00 6,8 6,8 15 8 - - ENE
20.10.2017 00:00:00 7,0 7,0 9 5 - - NNW
19.10.2017 23:00:00 7,7 7,7 22 12 - - SE
19.10.2017 22:00:00 7,0 7,0 31 17 46 25 ESE
19.10.2017 21:00:00 6,4 6,4 31 17 46 25 ESE
19.10.2017 20:00:00 6,4 6,4 26 14 - - SE
19.10.2017 19:00:00 6,6 6,6 31 17 52 28 SE
19.10.2017 18:00:00 6,7 6,6 35 19 59 32 SE
19.10.2017 17:00:00 7,0 7,0 37 20 55 30 SSE
19.10.2017 16:00:00 7,2 7,2 39 21 52 28 SSE
19.10.2017 15:00:00 7,2 7,2 39 21 55 30 SSE
19.10.2017 14:00:00 7,1 7,0 39 21 54 29 SSE
19.10.2017 13:00:00 6,6 6,6 37 20 57 31 SSE
19.10.2017 12:00:00 6,5 6,5 44 24 61 33 S
19.10.2017 11:00:00 6,5 6,5 46 25 61 33 S
19.10.2017 10:00:00 5,9 5,9 48 26 61 33 SSE
19.10.2017 09:00:00 5,8 5,8 46 25 63 34 SSE
19.10.2017 08:00:00 5,6 5,6 41 22 54 29 SE
19.10.2017 07:00:00 5,4 5,4 35 19 - - SE
19.10.2017 06:00:00 5,5 5,4 34 18 54 29 SE
19.10.2017 05:00:00 5,4 5,4 35 19 65 35 SE
19.10.2017 04:00:00 5,2 5,2 46 25 67 36 SE
19.10.2017 03:00:00 5,1 5,1 52 28 67 36 SE
19.10.2017 02:00:00 4,8 4,7 54 29 70 38 SE
19.10.2017 01:00:00 4,2 4,2 42 23 67 36 SE
19.10.2017 00:00:00 3,4 3,3 55 30 67 36 SSE
18.10.2017 23:00:00 2,8 2,8 46 25 57 31 SE
18.10.2017 22:00:00 2,7 2,7 41 22 57 31 SE
18.10.2017 21:00:00 2,4 2,4 34 18 59 32 SE
18.10.2017 20:00:00 2,2 2,2 29 16 50 27 SE
18.10.2017 19:00:00 2,5 2,5 15 8 - - SSE
18.10.2017 18:00:00 2,5 2,5 28 15 - - ESE
18.10.2017 17:00:00 2,6 2,6 29 16 - - ESE
18.10.2017 16:00:00 3,1 3,0 24 13 - - ESE
18.10.2017 15:00:00 2,9 2,8 18 10 - - ESE
18.10.2017 14:00:00 3,1 2,8 16 9 - - ESE
18.10.2017 13:00:00 3,0 2,3 11 6 - - ESE
18.10.2017 12:00:00 2,6 2,3 8 4 - - E
18.10.2017 11:00:00 2,3 2,1 15 8 - - ESE
18.10.2017 10:00:00 2,1 2,0 24 13 - - E
18.10.2017 09:00:00 1,8 1,8 13 7 - - ENE
18.10.2017 08:00:00 1,8 1,8 24 13 - - ENE
18.10.2017 07:00:00 1,9 1,9 22 12 - - ENE
18.10.2017 06:00:00 2,2 2,2 22 12 - - E
18.10.2017 05:00:00 2,0 2,0 21 11 - - ENE
18.10.2017 04:00:00 2,1 2,1 24 13 - - ENE
18.10.2017 03:00:00 2,2 2,2 21 11 - - NE
18.10.2017 02:00:00 2,4 2,4 29 16 - - NNE
18.10.2017 01:00:00 2,6 2,5 31 17 - - NNE
18.10.2017 00:00:00 2,5 2,4 35 19 46 25 NNE
17.10.2017 23:00:00 2,7 2,7 42 23 57 31 NNE
17.10.2017 22:00:00 2,9 2,9 48 26 63 34 NNE
17.10.2017 21:00:00 3,2 3,2 55 30 65 35 N
17.10.2017 20:00:00 3,2 3,2 54 29 65 35 NNE
17.10.2017 19:00:00 3,5 3,4 52 28 63 34 NNE
17.10.2017 18:00:00 4,2 4,2 39 21 63 34 N
17.10.2017 17:00:00 4,5 4,5 - - 72 39 -
17.10.2017 16:00:00 5,0 5,0 42 23 61 33 NNW
17.10.2017 15:00:00 5,5 5,5 46 25 65 35 NNW
17.10.2017 14:00:00 6,7 6,6 61 33 83 45 WNW
17.10.2017 13:00:00 6,8 6,8 61 33 83 45 W
17.10.2017 12:00:00 6,9 6,9 61 33 78 42 W
17.10.2017 11:00:00 7,1 7,1 44 24 78 42 W
17.10.2017 10:00:00 6,7 6,7 48 26 80 43 W
17.10.2017 09:00:00 6,5 6,4 55 30 111 60 W
17.10.2017 08:00:00 6,7 6,7 72 39 115 62 W
17.10.2017 07:00:00 6,8 6,8 68 37 126 68 W
17.10.2017 06:00:00 7,1 7,1 93 50 133 72 W
17.10.2017 05:00:00 6,5 6,5 72 39 111 60 SSW
17.10.2017 04:00:00 6,3 6,3 89 48 120 65 SSW
17.10.2017 03:00:00 6,7 6,7 89 48 122 66 SSW
17.10.2017 02:00:00 6,8 6,8 94 51 128 69 S
17.10.2017 01:00:00 6,8 6,7 89 48 115 62 S
17.10.2017 00:00:00 6,8 6,8 96 52 119 64 S
16.10.2017 23:00:00 6,6 6,6 91 49 120 65 S
16.10.2017 22:00:00 6,3 6,2 87 47 131 71 SSE
16.10.2017 21:00:00 6,3 6,2 94 51 128 69 SSE
16.10.2017 20:00:00 6,7 6,7 102 55 133 72 S
16.10.2017 19:00:00 7,4 7,4 70 38 91 49 SSE
16.10.2017 18:00:00 8,1 8,0 55 30 78 42 SE
16.10.2017 17:00:00 8,1 8,0 54 29 102 55 ESE
16.10.2017 16:00:00 7,7 7,7 59 32 94 51 ESE
16.10.2017 15:00:00 7,4 7,4 61 33 87 47 ESE
16.10.2017 14:00:00 8,1 8,1 39 21 55 30 ESE
16.10.2017 13:00:00 5,9 5,8 26 14 - - E
16.10.2017 12:00:00 6,8 6,7 26 14 - - E
16.10.2017 11:00:00 6,1 6,0 26 14 50 27 ESE
16.10.2017 10:00:00 4,6 4,6 31 17 50 27 ESE
16.10.2017 09:00:00 3,4 3,4 16 9 - - ENE
16.10.2017 08:00:00 3,1 3,0 24 13 - - ENE
16.10.2017 07:00:00 3,5 3,3 4 2 - - N
16.10.2017 06:00:00 3,6 3,4 26 14 - - ESE
16.10.2017 05:00:00 4,0 3,8 22 12 - - ESE
16.10.2017 04:00:00 4,2 4,2 16 9 - - ESE
16.10.2017 03:00:00 4,3 3,8 26 14 - - SE
16.10.2017 02:00:00 4,8 2,9 24 13 - - SE
16.10.2017 01:00:00 5,5 1,2 15 8 - - SE
16.10.2017 00:00:00 4,9 2,5 11 6 - - NE
15.10.2017 23:00:00 5,3 3,8 15 8 - - NNE
15.10.2017 22:00:00 4,3 4,2 15 8 - - N
15.10.2017 21:00:00 3,8 3,8 29 16 59 32 NW
15.10.2017 20:00:00 4,0 3,9 61 33 76 41 WNW
15.10.2017 19:00:00 4,0 3,9 52 28 63 34 NW
15.10.2017 18:00:00 5,9 5,5 41 22 83 45 WNW
15.10.2017 17:00:00 7,9 6,7 57 31 102 55 W
15.10.2017 16:00:00 9,9 7,5 72 39 98 53 WSW
15.10.2017 15:00:00 9,8 8,5 67 36 117 63 SW
15.10.2017 14:00:00 9,1 8,7 93 50 126 68 SW
15.10.2017 13:00:00 8,9 8,9 91 49 122 66 SW
15.10.2017 12:00:00 8,6 8,6 59 32 83 45 SSW
15.10.2017 11:00:00 8,2 8,2 55 30 80 43 SSW
15.10.2017 10:00:00 7,9 7,9 61 33 83 45 SSW
15.10.2017 09:00:00 7,8 7,7 76 41 106 57 S
15.10.2017 08:00:00 7,5 7,4 78 42 100 54 S
15.10.2017 07:00:00 7,5 7,5 74 40 109 59 SSW
15.10.2017 06:00:00 7,6 7,6 81 44 107 58 SSW

tt = temperature
td = dewpoint
ff = wind speed
fx = gusts
dd = wind direction

Next stations